Time;durP1;ratioP1;P1;durP2;ratioP2;P2;SDS_P1;SDS_P2;PMS_P1;PMS_P2;Temp;Humidity;BMP_temperature;BMP_pressure;BME280_temperature;BME280_humidity;BME280_pressure;Samples;Min_cycle;Max_cycle;Signal;HPM_P1;HPM_P2
2021/01/08 00:00:18;;;;;;;34.30;19.02;;;0.80;99.90;;;;;;5030583;28;20057;-88
2021/01/08 00:02:45;;;;;;;31.00;19.08;;;0.80;99.90;;;;;;5044480;28;20377;-88
2021/01/08 00:05:12;;;;;;;30.95;18.48;;;0.80;99.90;;;;;;5022040;28;20072;-88
2021/01/08 00:07:39;;;;;;;31.73;19.40;;;0.80;99.90;;;;;;5024342;28;20119;-88
2021/01/08 00:10:07;;;;;;;33.28;19.15;;;0.80;99.90;;;;;;5030955;28;20048;-88
2021/01/08 00:12:35;;;;;;;32.08;19.70;;;0.70;99.90;;;;;;5032908;28;20056;-88
2021/01/08 00:15:03;;;;;;;31.40;19.35;;;0.70;99.90;;;;;;5035907;28;20052;-88
2021/01/08 00:17:30;;;;;;;34.83;19.83;;;0.70;99.90;;;;;;5030959;28;20049;-88
2021/01/08 00:19:58;;;;;;;32.42;19.65;;;0.70;99.90;;;;;;5043326;28;20048;-88
2021/01/08 00:22:25;;;;;;;34.90;20.58;;;0.60;99.90;;;;;;5037205;28;20524;-88
2021/01/08 00:24:53;;;;;;;39.20;21.27;;;0.60;99.90;;;;;;5037854;28;20056;-88
2021/01/08 00:27:20;;;;;;;36.85;21.02;;;0.60;99.90;;;;;;5044239;28;20058;-88
2021/01/08 00:29:47;;;;;;;38.85;21.25;;;0.60;99.90;;;;;;5043892;28;20079;-88
2021/01/08 00:32:18;;;;;;;33.17;20.90;;;0.60;99.90;;;;;;5053821;28;20045;-88
2021/01/08 00:34:45;;;;;;;36.97;20.67;;;0.60;99.90;;;;;;5035655;28;20052;-88
2021/01/08 00:37:12;;;;;;;37.47;20.52;;;0.50;99.90;;;;;;5034741;28;20425;-88
2021/01/08 00:39:39;;;;;;;36.15;19.67;;;0.50;99.90;;;;;;5036870;28;20068;-87
2021/01/08 00:42:07;;;;;;;40.00;22.03;;;0.50;99.90;;;;;;5024356;28;20063;-88
2021/01/08 00:44:34;;;;;;;38.05;21.05;;;0.50;99.90;;;;;;5024920;28;20315;-88
2021/01/08 00:47:01;;;;;;;37.80;21.33;;;0.50;99.90;;;;;;5025899;28;20060;-88
2021/01/08 00:49:28;;;;;;;34.55;19.95;;;0.50;99.90;;;;;;5026425;28;20053;-88
2021/01/08 00:51:54;;;;;;;35.83;21.13;;;0.50;99.90;;;;;;5022008;28;20559;-88
2021/01/08 00:54:21;;;;;;;39.70;21.33;;;0.50;99.90;;;;;;5021112;28;20454;-89
2021/01/08 00:56:48;;;;;;;34.97;20.60;;;0.50;99.90;;;;;;5037196;28;20064;-88
2021/01/08 00:59:14;;;;;;;40.72;22.27;;;0.50;99.90;;;;;;5029611;28;20053;-87
2021/01/08 01:01:41;;;;;;;40.28;20.50;;;0.50;99.90;;;;;;5033692;28;20080;-88
2021/01/08 01:04:08;;;;;;;35.60;20.35;;;0.50;99.90;;;;;;5029230;28;20068;-88
2021/01/08 01:06:35;;;;;;;40.00;22.52;;;0.50;99.90;;;;;;5033064;28;20136;-87
2021/01/08 01:09:03;;;;;;;44.53;22.48;;;0.40;99.90;;;;;;5031066;28;20063;-88
2021/01/08 01:11:30;;;;;;;37.35;21.42;;;0.40;99.90;;;;;;5035277;28;20057;-87
2021/01/08 01:13:58;;;;;;;41.20;21.52;;;0.50;99.90;;;;;;5032460;28;20082;-87
2021/01/08 01:16:26;;;;;;;41.33;21.95;;;0.40;99.90;;;;;;5036468;28;20127;-88
2021/01/08 01:18:56;;;;;;;39.78;20.98;;;0.50;99.90;;;;;;5036453;28;20053;-87
2021/01/08 01:21:24;;;;;;;38.20;22.15;;;0.40;99.90;;;;;;5035424;28;20057;-88
2021/01/08 01:23:50;;;;;;;38.20;21.23;;;0.50;99.90;;;;;;5028721;28;20427;-87
2021/01/08 01:26:17;;;;;;;37.58;22.08;;;0.50;99.90;;;;;;5031584;28;20057;-87
2021/01/08 01:28:44;;;;;;;36.55;20.42;;;0.40;99.90;;;;;;5034811;28;20396;-88
2021/01/08 01:31:10;;;;;;;39.90;21.02;;;0.50;99.90;;;;;;5035195;28;20053;-88
2021/01/08 01:33:37;;;;;;;34.33;20.10;;;0.50;99.90;;;;;;5020255;28;20614;-88
2021/01/08 01:36:06;;;;;;;37.13;21.48;;;0.50;99.90;;;;;;5022138;28;20072;-88
2021/01/08 01:38:34;;;;;;;38.85;20.40;;;0.50;99.90;;;;;;5023876;28;20111;-88
2021/01/08 01:41:00;;;;;;;32.55;19.55;;;0.50;99.90;;;;;;5024262;28;20060;-88
2021/01/08 01:43:27;;;;;;;38.67;21.08;;;0.50;99.90;;;;;;5027431;28;20049;-88
2021/01/08 01:45:54;;;;;;;36.25;20.27;;;0.50;99.90;;;;;;5024999;28;20064;-87
2021/01/08 01:48:20;;;;;;;33.30;20.13;;;0.50;99.90;;;;;;5028537;28;20522;-88
2021/01/08 01:50:47;;;;;;;35.22;20.08;;;0.50;99.90;;;;;;5031139;28;20053;-88
2021/01/08 01:53:14;;;;;;;34.83;20.35;;;0.60;99.90;;;;;;5024921;28;20068;-88
2021/01/08 01:55:41;;;;;;;34.03;20.05;;;0.60;99.90;;;;;;5027499;28;20061;-87
2021/01/08 01:58:07;;;;;;;33.65;19.48;;;0.60;99.90;;;;;;5054626;28;20045;-88
2021/01/08 02:00:34;;;;;;;35.20;21.00;;;0.60;99.90;;;;;;5036747;28;20163;-87
2021/01/08 02:03:13;;;;;;;31.40;19.45;;;0.60;99.90;;;;;;5036542;28;20048;-87
2021/01/08 02:05:40;;;;;;;32.72;19.83;;;0.60;99.90;;;;;;5035800;28;20060;-88
2021/01/08 02:08:16;;;;;;;32.08;19.20;;;0.70;99.90;;;;;;5035057;28;20041;-87
2021/01/08 02:10:49;;;;;;;31.63;18.95;;;0.70;99.90;;;;;;5034537;28;20049;-88
2021/01/08 02:13:25;;;;;;;30.55;18.92;;;0.60;99.90;;;;;;5035348;28;20080;-87
2021/01/08 02:15:54;;;;;;;37.78;20.15;;;0.60;99.90;;;;;;5020112;28;20041;-87
2021/01/08 02:18:21;;;;;;;;;;;0.60;99.90;;;;;;5053079;28;20083;-87
2021/01/08 02:20:49;;;;;;;27.63;17.23;;;0.60;99.90;;;;;;5023716;28;19944;-88
2021/01/08 02:23:24;;;;;;;32.58;18.65;;;0.60;99.90;;;;;;5022715;28;20191;-87
2021/01/08 02:25:52;;;;;;;33.80;19.13;;;0.60;99.90;;;;;;5022743;28;20053;-87
2021/01/08 02:28:24;;;;;;;33.53;19.77;;;0.60;99.90;;;;;;5024115;28;20040;-88
2021/01/08 02:30:52;;;;;;;32.35;18.90;;;0.60;99.90;;;;;;5022165;28;20052;-87
2021/01/08 02:33:20;;;;;;;30.33;18.75;;;0.60;99.90;;;;;;5022955;28;20053;-87
2021/01/08 02:35:51;;;;;;;33.03;18.85;;;0.70;99.90;;;;;;5025371;28;20057;-88
2021/01/08 02:38:21;;;;;;;31.65;18.92;;;0.70;99.90;;;;;;5026778;28;20099;-88
2021/01/08 02:40:50;;;;;;;30.63;18.92;;;0.70;99.90;;;;;;5030693;28;20056;-87
2021/01/08 02:43:22;;;;;;;30.83;18.77;;;0.70;99.90;;;;;;5025945;28;20049;-87
2021/01/08 02:45:50;;;;;;;32.17;18.58;;;0.80;99.90;;;;;;5031840;28;20049;-87
2021/01/08 02:48:17;;;;;;;30.52;17.95;;;0.80;99.90;;;;;;5033174;28;20045;-88
2021/01/08 02:50:44;;;;;;;31.75;17.60;;;0.80;99.90;;;;;;5033628;28;20459;-87
2021/01/08 02:53:15;;;;;;;33.88;18.55;;;0.80;99.90;;;;;;5034503;28;20052;-88
2021/01/08 02:55:54;;;;;;;30.55;17.60;;;0.70;99.90;;;;;;5059534;28;20056;-88
2021/01/08 02:58:21;;;;;;;28.33;16.67;;;0.70;99.90;;;;;;5067348;28;20056;-88
2021/01/08 03:00:50;;;;;;;30.10;18.02;;;0.70;99.90;;;;;;5041187;28;20053;-88
2021/01/08 03:03:17;;;;;;;;;;;0.70;99.90;;;;;;5033251;28;20127;-88
2021/01/08 03:05:44;;;;;;;26.60;16.02;;;0.70;99.90;;;;;;5030771;28;20330;-88
2021/01/08 03:08:11;;;;;;;28.55;16.40;;;0.70;99.90;;;;;;5033722;28;20047;-88
2021/01/08 03:10:38;;;;;;;30.88;17.38;;;0.70;99.90;;;;;;5049888;28;20075;-88
2021/01/08 03:13:06;;;;;;;32.60;18.27;;;0.70;99.90;;;;;;5018721;28;20076;-88
2021/01/08 03:15:32;;;;;;;31.17;18.70;;;0.60;99.90;;;;;;5019082;28;20061;-88
2021/01/08 03:17:59;;;;;;;32.42;17.90;;;0.70;99.90;;;;;;5051946;28;20060;-88
2021/01/08 03:20:26;;;;;;;31.92;18.92;;;0.60;99.90;;;;;;5024956;28;20403;-88
2021/01/08 03:22:53;;;;;;;35.28;19.27;;;0.60;99.90;;;;;;5023859;28;20120;-88
2021/01/08 03:25:19;;;;;;;34.15;18.83;;;0.60;99.90;;;;;;5017830;28;20045;-88
2021/01/08 03:27:46;;;;;;;33.88;20.35;;;0.60;99.90;;;;;;5023857;28;20045;-88
2021/01/08 03:30:13;;;;;;;36.20;20.13;;;0.60;99.90;;;;;;5066877;28;20049;-88
2021/01/08 03:32:39;;;;;;;33.30;19.77;;;0.60;99.90;;;;;;5020908;28;20124;-88
2021/01/08 03:35:07;;;;;;;34.25;19.33;;;0.70;99.90;;;;;;5023193;28;20051;-88
2021/01/08 03:37:36;;;;;;;35.72;19.83;;;0.70;99.90;;;;;;5031654;28;20049;-88
2021/01/08 03:40:05;;;;;;;30.70;18.40;;;0.70;99.90;;;;;;5022905;28;20042;-88
2021/01/08 03:42:32;;;;;;;31.33;18.45;;;0.70;99.90;;;;;;5031937;28;20053;-87
2021/01/08 03:44:59;;;;;;;30.48;18.30;;;0.60;99.90;;;;;;5034701;28;20045;-88
2021/01/08 03:47:25;;;;;;;32.50;18.83;;;0.60;99.90;;;;;;5034000;28;20049;-88
2021/01/08 03:49:52;;;;;;;31.35;19.70;;;0.60;99.90;;;;;;5033870;28;20048;-88
2021/01/08 03:52:18;;;;;;;31.45;18.80;;;0.60;99.90;;;;;;5033936;28;20049;-87
2021/01/08 03:54:45;;;;;;;35.55;20.30;;;0.60;99.90;;;;;;5032813;28;20457;-87
2021/01/08 03:57:11;;;;;;;33.50;19.50;;;0.60;99.90;;;;;;5050508;28;20475;-88
2021/01/08 03:59:38;;;;;;;33.78;20.02;;;0.60;99.90;;;;;;5030747;28;20500;-88
2021/01/08 04:02:05;;;;;;;31.38;18.55;;;0.60;99.90;;;;;;5028583;28;20111;-88
2021/01/08 04:04:32;;;;;;;40.10;21.48;;;0.50;99.90;;;;;;5021449;28;20084;-88
2021/01/08 04:06:59;;;;;;;35.13;20.23;;;0.50;99.90;;;;;;5019426;28;20067;-88
2021/01/08 04:09:25;;;;;;;39.83;21.42;;;0.50;99.90;;;;;;5022324;28;20053;-88
2021/01/08 04:11:52;;;;;;;34.85;19.63;;;0.50;99.90;;;;;;5025640;28;20057;-87
2021/01/08 04:14:18;;;;;;;32.60;20.20;;;0.50;99.90;;;;;;5026371;28;20468;-88
2021/01/08 04:16:45;;;;;;;36.95;19.88;;;0.50;99.90;;;;;;5021441;28;20049;-88
2021/01/08 04:19:13;;;;;;;34.85;19.35;;;0.50;99.90;;;;;;5024306;28;20061;-87
2021/01/08 04:21:39;;;;;;;34.92;20.13;;;0.50;99.90;;;;;;5029399;28;20101;-88
2021/01/08 04:24:06;;;;;;;35.88;19.95;;;0.40;99.90;;;;;;5033212;28;20053;-88
2021/01/08 04:26:34;;;;;;;36.28;19.50;;;0.40;99.90;;;;;;5027624;28;20055;-88
2021/01/08 04:29:00;;;;;;;35.40;19.60;;;0.40;99.90;;;;;;5036300;28;20049;-88
2021/01/08 04:31:27;;;;;;;38.80;20.40;;;0.40;99.90;;;;;;5035466;28;20048;-88
2021/01/08 04:33:53;;;;;;;37.20;19.95;;;0.40;99.90;;;;;;5035618;28;20056;-88
2021/01/08 04:36:20;;;;;;;33.60;19.50;;;0.40;99.90;;;;;;5037903;28;20378;-87
2021/01/08 04:38:47;;;;;;;38.47;20.20;;;0.40;99.90;;;;;;5033469;28;20052;-88
2021/01/08 04:41:15;;;;;;;34.20;19.02;;;0.40;99.90;;;;;;5037777;28;20052;-88
2021/01/08 04:43:41;;;;;;;36.33;19.75;;;0.40;99.90;;;;;;5035884;28;20057;-87
2021/01/08 04:46:18;;;;;;;34.70;19.40;;;0.30;99.90;;;;;;5036709;28;20048;-87
2021/01/08 04:48:46;;;;;;;37.13;19.92;;;0.30;99.90;;;;;;5068911;28;23370;-88
2021/01/08 04:51:14;;;;;;;34.05;19.02;;;0.30;99.90;;;;;;5037423;28;20055;-88
2021/01/08 04:53:42;;;;;;;33.33;18.47;;;0.30;99.90;;;;;;5025715;28;20064;-88
2021/01/08 04:56:13;;;;;;;32.40;18.40;;;0.30;99.90;;;;;;5058784;28;20746;-88
2021/01/08 04:58:40;;;;;;;36.05;19.48;;;0.30;99.90;;;;;;5025742;28;20127;-88
2021/01/08 05:01:07;;;;;;;33.85;19.13;;;0.30;99.90;;;;;;5030482;28;20049;-88
2021/01/08 05:03:33;;;;;;;33.03;18.25;;;0.30;99.90;;;;;;5022199;28;20123;-87
2021/01/08 05:06:00;;;;;;;33.67;18.75;;;0.30;99.90;;;;;;5024609;28;20361;-87
2021/01/08 05:08:27;;;;;;;32.85;19.00;;;0.30;99.90;;;;;;5018832;28;20053;-88
2021/01/08 05:10:59;;;;;;;31.70;19.00;;;0.30;99.90;;;;;;5022455;28;20045;-88
2021/01/08 05:13:34;;;;;;;30.98;18.63;;;0.30;99.90;;;;;;5025270;28;20057;-88
2021/01/08 05:16:02;;;;;;;35.10;20.02;;;0.30;99.90;;;;;;5029165;28;20052;-87
2021/01/08 05:18:30;;;;;;;33.85;19.05;;;0.30;99.90;;;;;;5031925;28;20501;-88
2021/01/08 05:20:58;;;;;;;37.95;19.40;;;0.30;99.90;;;;;;5035372;28;20052;-88
2021/01/08 05:23:27;;;;;;;30.67;18.73;;;0.40;99.90;;;;;;5031630;28;20064;-87
2021/01/08 05:25:54;;;;;;;30.45;18.15;;;0.40;99.90;;;;;;5032289;28;20487;-88
2021/01/08 05:28:21;;;;;;;31.25;18.25;;;0.40;99.90;;;;;;5029897;28;20619;-88
2021/01/08 05:30:50;;;;;;;34.50;19.15;;;0.40;99.90;;;;;;5034358;28;20496;-87
2021/01/08 05:33:17;;;;;;;33.53;20.33;;;0.50;99.90;;;;;;5037407;28;20045;-88
2021/01/08 05:35:44;;;;;;;30.23;18.52;;;0.50;99.90;;;;;;5031857;28;20056;-88
2021/01/08 05:38:11;;;;;;;31.20;18.38;;;0.60;99.90;;;;;;5036538;28;20353;-87
2021/01/08 05:40:41;;;;;;;33.25;18.55;;;0.60;99.90;;;;;;5041430;28;20109;-87
2021/01/08 05:43:09;;;;;;;30.13;18.35;;;0.60;99.90;;;;;;5045447;28;20053;-89
2021/01/08 05:45:36;;;;;;;32.05;17.60;;;0.60;99.90;;;;;;5036958;28;20080;-85
2021/01/08 05:48:05;;;;;;;32.65;18.40;;;0.60;99.90;;;;;;5038061;28;20049;-87
2021/01/08 05:50:33;;;;;;;29.45;17.90;;;0.70;99.90;;;;;;5026341;28;20049;-88
2021/01/08 05:53:05;;;;;;;32.83;18.40;;;0.70;99.90;;;;;;5025573;28;20037;-87
2021/01/08 05:55:36;;;;;;;32.83;17.90;;;0.70;99.90;;;;;;5027200;28;20415;-88
2021/01/08 05:58:22;;;;;;;33.35;18.73;;;0.70;99.90;;;;;;5019590;28;20848;-87
2021/01/08 06:01:02;;;;;;;30.65;18.30;;;0.80;99.90;;;;;;5032145;28;20056;-87
2021/01/08 06:03:30;;;;;;;29.63;17.63;;;0.80;99.90;;;;;;5039126;28;20053;-86
2021/01/08 06:05:59;;;;;;;32.45;17.83;;;0.80;99.90;;;;;;5031129;28;20064;-87
2021/01/08 06:08:36;;;;;;;31.33;17.55;;;0.80;99.90;;;;;;5024852;28;20053;-87
2021/01/08 06:11:05;;;;;;;30.13;17.63;;;0.80;99.90;;;;;;5025592;28;20052;-88
2021/01/08 06:13:34;;;;;;;30.00;17.83;;;0.90;99.90;;;;;;5033791;28;20048;-87
2021/01/08 06:16:03;;;;;;;31.35;17.33;;;0.90;99.90;;;;;;5035474;28;20053;-88
2021/01/08 06:18:37;;;;;;;31.85;18.73;;;0.90;99.90;;;;;;5043891;28;20549;-88
2021/01/08 06:21:09;;;;;;;31.88;18.27;;;0.90;99.90;;;;;;5036297;28;20049;-88
2021/01/08 06:23:41;;;;;;;30.42;18.08;;;0.90;99.90;;;;;;5035354;28;20045;-88
2021/01/08 06:26:13;;;;;;;30.20;17.23;;;1.00;99.90;;;;;;5034690;28;20045;-88
2021/01/08 06:28:42;;;;;;;32.35;18.75;;;1.00;99.90;;;;;;5030196;28;20043;-87
2021/01/08 06:31:20;;;;;;;29.90;17.17;;;0.90;99.90;;;;;;5031977;28;20057;-87
2021/01/08 06:33:58;;;;;;;34.30;18.38;;;1.00;99.90;;;;;;5051801;28;20475;-88
2021/01/08 06:36:27;;;;;;;29.43;18.43;;;1.00;99.90;;;;;;5020435;28;20480;-88
2021/01/08 06:39:03;;;;;;;29.60;17.17;;;1.00;99.90;;;;;;5023898;28;20502;-88
2021/01/08 06:41:30;;;;;;;30.05;17.23;;;1.00;99.90;;;;;;5025337;28;20054;-88
2021/01/08 06:44:04;;;;;;;31.90;17.77;;;1.00;99.90;;;;;;5024236;28;20475;-88
2021/01/08 06:46:39;;;;;;;31.90;17.48;;;1.00;99.90;;;;;;5024963;28;20057;-88
2021/01/08 06:49:13;;;;;;;32.00;17.45;;;1.10;99.90;;;;;;5034985;28;20048;-87
2021/01/08 06:51:43;;;;;;;34.53;17.40;;;1.00;99.90;;;;;;5025409;28;20498;-87
2021/01/08 06:54:11;;;;;;;27.73;16.33;;;1.10;99.90;;;;;;5028464;28;20490;-88
2021/01/08 06:56:40;;;;;;;26.77;16.83;;;1.10;99.90;;;;;;5069568;28;20045;-88
2021/01/08 06:59:09;;;;;;;27.30;16.63;;;1.10;99.90;;;;;;5036737;28;20056;-86
2021/01/08 07:01:53;;;;;;;29.25;16.95;;;1.10;99.90;;;;;;5025196;28;20438;-87
2021/01/08 07:04:31;;;;;;;29.30;17.23;;;1.10;99.90;;;;;;5048407;28;20299;-88
2021/01/08 07:07:02;;;;;;;29.63;17.20;;;1.10;99.90;;;;;;5034747;28;20057;-87
2021/01/08 07:09:36;;;;;;;27.98;16.52;;;1.10;99.90;;;;;;5034747;28;20049;-87
2021/01/08 07:12:05;;;;;;;26.52;16.80;;;1.10;99.90;;;;;;5030203;28;20083;-87
2021/01/08 07:14:35;;;;;;;29.95;17.67;;;1.10;99.90;;;;;;5034117;28;20056;-87
2021/01/08 07:17:06;;;;;;;30.35;17.45;;;1.10;99.90;;;;;;5030968;28;20102;-87
2021/01/08 07:19:33;;;;;;;27.05;17.23;;;1.10;99.90;;;;;;5044723;28;20068;-87
2021/01/08 07:22:01;;;;;;;22.85;14.48;;;1.10;99.90;;;;;;5066913;28;20045;-84
2021/01/08 07:24:32;;;;;;;28.30;17.08;;;1.20;99.90;;;;;;5034419;28;20049;-84
2021/01/08 07:27:14;;;;;;;27.52;16.70;;;1.20;99.90;;;;;;5033761;28;20292;-86
2021/01/08 07:29:51;;;;;;;28.20;16.70;;;1.30;99.90;;;;;;5022876;28;20431;-86
2021/01/08 07:32:37;;;;;;;29.85;17.58;;;1.30;99.90;;;;;;5023000;28;20097;-86
2021/01/08 07:35:25;;;;;;;32.97;18.27;;;1.30;99.90;;;;;;5056707;28;20486;-86
2021/01/08 07:37:55;;;;;;;29.30;17.67;;;1.30;99.90;;;;;;5025733;28;20108;-86
2021/01/08 07:40:23;;;;;;;28.67;17.50;;;1.30;99.90;;;;;;5025681;28;20042;-86
2021/01/08 07:43:09;;;;;;;28.80;18.80;;;1.30;99.90;;;;;;5024064;28;20049;-86
2021/01/08 07:45:56;;;;;;;31.00;17.25;;;1.30;99.90;;;;;;5027945;28;20071;-86
2021/01/08 07:48:24;;;;;;;30.20;17.25;;;1.40;99.90;;;;;;5071722;28;20171;-85
2021/01/08 07:51:15;;;;;;;28.33;18.38;;;1.40;99.90;;;;;;5057006;28;20037;-86
2021/01/08 07:53:42;;;;;;;30.50;17.58;;;1.40;99.90;;;;;;5028038;28;20060;-86
2021/01/08 07:56:14;;;;;;;32.67;18.73;;;1.40;99.90;;;;;;5037403;28;20049;-85
2021/01/08 07:58:42;;;;;;;31.55;19.40;;;1.50;99.90;;;;;;5061359;28;20049;-86
2021/01/08 08:01:10;;;;;;;31.48;18.83;;;1.50;99.90;;;;;;5037801;28;20045;-86
2021/01/08 08:03:37;;;;;;;;;;;1.50;99.90;;;;;;5038618;28;20049;-86
2021/01/08 08:06:05;;;;;;;30.58;17.52;;;1.50;99.90;;;;;;5055812;28;20338;-85
2021/01/08 08:08:38;;;;;;;30.83;18.15;;;1.50;99.90;;;;;;5035890;28;20514;-86
2021/01/08 08:11:16;;;;;;;29.90;18.17;;;1.50;99.90;;;;;;5032928;28;20071;-86
2021/01/08 08:13:46;;;;;;;31.25;18.60;;;1.50;99.90;;;;;;5035187;28;20049;-86
2021/01/08 08:16:12;;;;;;;33.45;19.25;;;1.50;99.90;;;;;;5055378;28;20386;-86
2021/01/08 08:18:53;;;;;;;29.98;18.55;;;1.50;99.90;;;;;;5021165;28;20486;-86
2021/01/08 08:21:21;;;;;;;33.65;19.77;;;1.60;99.90;;;;;;5055538;28;20068;-85
2021/01/08 08:23:52;;;;;;;35.30;20.63;;;1.60;99.90;;;;;;5053750;28;20080;-85
2021/01/08 08:26:19;;;;;;;32.83;19.40;;;1.60;99.90;;;;;;5028517;28;20395;-85
2021/01/08 08:28:59;;;;;;;37.03;21.02;;;1.60;99.90;;;;;;5025530;28;20100;-86
2021/01/08 08:31:31;;;;;;;29.73;18.85;;;1.60;99.90;;;;;;5058946;28;20057;-86
2021/01/08 08:33:59;;;;;;;35.60;20.40;;;1.70;99.90;;;;;;5046144;28;20041;-87
2021/01/08 08:36:27;;;;;;;31.08;19.05;;;1.70;99.90;;;;;;5030013;28;20057;-85
2021/01/08 08:39:08;;;;;;;35.28;20.80;;;1.70;99.90;;;;;;5033155;28;20056;-86
2021/01/08 08:41:37;;;;;;;33.70;19.15;;;1.70;99.90;;;;;;5066836;28;20528;-86
2021/01/08 08:44:14;;;;;;;39.53;21.30;;;1.70;99.90;;;;;;5035470;28;20052;-85
2021/01/08 08:46:50;;;;;;;35.03;20.63;;;1.80;99.90;;;;;;5031535;28;20049;-85
2021/01/08 08:49:24;;;;;;;37.83;20.90;;;1.80;99.90;;;;;;5033227;28;20057;-85
2021/01/08 08:51:53;;;;;;;41.03;21.00;;;1.80;99.90;;;;;;5035097;28;20088;-85
2021/01/08 08:54:20;;;;;;;43.63;22.92;;;1.90;99.90;;;;;;5037663;28;20065;-85
2021/01/08 08:56:54;;;;;;;39.53;21.02;;;1.90;99.90;;;;;;5036043;28;20107;-86
2021/01/08 08:59:41;;;;;;;42.53;21.23;;;1.90;99.90;;;;;;5036000;28;20082;-86
2021/01/08 09:02:27;;;;;;;39.30;22.02;;;1.90;99.90;;;;;;5031104;28;20053;-86
2021/01/08 09:04:56;;;;;;;43.08;22.33;;;2.00;99.90;;;;;;5043179;28;20058;-86
2021/01/08 09:07:40;;;;;;;42.58;22.70;;;1.90;99.90;;;;;;5024194;28;20065;-86
2021/01/08 09:10:22;;;;;;;39.80;22.70;;;2.00;99.90;;;;;;5057015;28;20076;-86
2021/01/08 09:12:59;;;;;;;40.47;22.27;;;2.00;99.90;;;;;;5036099;28;20489;-86
2021/01/08 09:15:31;;;;;;;36.10;22.23;;;2.00;99.90;;;;;;5054095;28;20049;-86
2021/01/08 09:18:07;;;;;;;43.30;23.13;;;2.00;99.90;;;;;;5024500;28;20057;-86
2021/01/08 09:21:20;;;;;;;48.60;23.08;;;2.10;99.90;;;;;;5055141;28;20049;-86
2021/01/08 09:23:49;;;;;;;40.45;22.75;;;2.10;99.90;;;;;;5026792;28;20065;-86
2021/01/08 09:26:18;;;;;;;47.88;23.45;;;2.20;99.90;;;;;;5028685;28;20049;-86
2021/01/08 09:28:50;;;;;;;46.80;23.63;;;2.20;99.90;;;;;;5033931;28;20045;-86
2021/01/08 09:31:18;;;;;;;46.30;23.67;;;2.20;99.90;;;;;;5026019;28;20049;-86
2021/01/08 09:33:55;;;;;;;45.67;23.40;;;2.30;99.90;;;;;;5033001;28;20082;-86
2021/01/08 09:36:30;;;;;;;41.78;23.42;;;2.30;99.90;;;;;;5035203;28;20063;-86
2021/01/08 09:39:03;;;;;;;40.13;23.33;;;2.30;99.90;;;;;;5037066;28;20044;-86
2021/01/08 09:41:31;;;;;;;43.00;24.02;;;2.40;99.90;;;;;;5039638;28;20049;-86
2021/01/08 09:44:03;;;;;;;41.03;22.55;;;2.40;99.90;;;;;;5041790;28;20127;-86
2021/01/08 09:46:30;;;;;;;46.05;23.92;;;2.40;99.90;;;;;;5035462;28;20479;-86
2021/01/08 09:49:07;;;;;;;40.63;23.75;;;2.50;99.90;;;;;;5036482;28;20055;-86
2021/01/08 09:51:34;;;;;;;45.60;24.52;;;2.50;99.90;;;;;;5035592;28;20138;-86
2021/01/08 09:54:01;;;;;;;39.63;23.58;;;2.50;99.90;;;;;;5053293;28;20131;-86
2021/01/08 09:56:28;;;;;;;43.35;24.17;;;2.50;99.90;;;;;;5034175;28;20402;-86
2021/01/08 09:59:14;;;;;;;45.60;24.02;;;2.50;99.90;;;;;;5031350;28;20041;-86
2021/01/08 10:01:55;;;;;;;44.17;23.98;;;2.60;99.90;;;;;;5024769;28;20041;-85
2021/01/08 10:04:25;;;;;;;50.72;25.48;;;2.60;99.90;;;;;;5024610;28;20131;-86
2021/01/08 10:06:57;;;;;;;44.15;23.80;;;2.70;99.90;;;;;;5020745;28;20045;-85
2021/01/08 10:09:23;;;;;;;41.05;23.70;;;2.70;99.90;;;;;;5039048;28;20507;-85
2021/01/08 10:12:00;;;;;;;45.47;24.95;;;2.70;99.90;;;;;;5023864;28;20061;-85
2021/01/08 10:14:31;;;;;;;44.03;25.05;;;2.70;99.90;;;;;;5017294;28;20053;-86
2021/01/08 10:17:12;;;;;;;45.17;24.38;;;2.80;99.90;;;;;;5029188;28;20055;-85
2021/01/08 10:19:41;;;;;;;43.08;25.23;;;2.80;99.90;;;;;;5032476;28;20080;-85
2021/01/08 10:22:08;;;;;;;39.75;23.60;;;2.90;99.90;;;;;;5018812;28;20103;-86
2021/01/08 10:24:35;;;;;;;43.28;24.98;;;2.90;99.90;;;;;;5048713;28;20075;-85
2021/01/08 10:27:02;;;;;;;51.17;30.13;;;3.00;99.90;;;;;;5035670;28;20120;-85
2021/01/08 10:29:34;;;;;;;52.58;30.70;;;3.00;99.90;;;;;;5034871;28;20053;-86
2021/01/08 10:32:09;;;;;;;49.90;30.98;;;3.10;99.90;;;;;;5032845;28;20466;-85
2021/01/08 10:34:38;;;;;;;52.00;29.83;;;3.10;99.90;;;;;;5052193;28;20461;-85
2021/01/08 10:37:05;;;;;;;;;;;3.20;99.90;;;;;;5021757;28;20049;-86
2021/01/08 10:39:31;;;;;;;47.33;27.55;;;3.30;99.90;;;;;;5025278;28;19924;-86
2021/01/08 10:41:58;;;;;;;42.45;26.10;;;3.30;99.90;;;;;;5030077;28;20479;-85
2021/01/08 10:44:41;;;;;;;40.33;25.80;;;3.40;99.90;;;;;;5066127;28;20102;-86
2021/01/08 10:47:08;;;;;;;44.55;26.65;;;3.50;99.90;;;;;;5033198;28;20378;-86
2021/01/08 10:49:48;;;;;;;40.97;25.40;;;3.50;99.90;;;;;;5033254;28;20084;-86
2021/01/08 10:52:15;;;;;;;42.15;25.45;;;3.60;99.90;;;;;;5021127;28;20045;-86
2021/01/08 10:54:42;;;;;;;41.28;24.33;;;3.70;99.90;;;;;;5019289;28;20063;-87
2021/01/08 10:57:08;;;;;;;53.03;25.73;;;3.70;99.90;;;;;;5055098;28;20107;-86
2021/01/08 10:59:35;;;;;;;40.75;25.20;;;3.70;99.90;;;;;;5018334;28;20406;-86
2021/01/08 11:02:02;;;;;;;39.75;24.77;;;3.80;99.90;;;;;;5028752;28;20053;-85
2021/01/08 11:04:41;;;;;;;38.65;23.75;;;3.80;99.90;;;;;;5019471;28;20129;-86
2021/01/08 11:07:08;;;;;;;41.08;24.67;;;3.80;99.90;;;;;;5020888;28;20053;-86
2021/01/08 11:09:35;;;;;;;38.55;23.95;;;3.80;99.90;;;;;;5025518;28;20049;-85
2021/01/08 11:12:02;;;;;;;37.50;23.55;;;3.90;99.90;;;;;;5030282;28;20467;-86
2021/01/08 11:14:28;;;;;;;38.50;23.92;;;4.00;99.90;;;;;;5023121;28;20049;-86
2021/01/08 11:16:55;;;;;;;36.78;23.55;;;4.00;99.90;;;;;;5033283;28;20056;-86
2021/01/08 11:19:21;;;;;;;41.38;24.35;;;4.00;99.90;;;;;;5033473;28;20061;-85
2021/01/08 11:21:54;;;;;;;36.83;23.92;;;4.10;99.90;;;;;;5034534;28;20478;-86
2021/01/08 11:24:20;;;;;;;48.15;26.60;;;4.10;99.90;;;;;;5031954;28;20044;-86
2021/01/08 11:26:47;;;;;;;40.78;24.38;;;4.20;99.90;;;;;;5056438;28;20101;-86
2021/01/08 11:29:14;;;;;;;40.47;25.10;;;4.20;99.90;;;;;;5040003;28;20045;-86
2021/01/08 11:31:41;;;;;;;41.17;23.63;;;4.20;99.90;;;;;;5031703;28;20087;-86
2021/01/08 11:34:09;;;;;;;40.08;24.52;;;4.30;99.90;;;;;;5033475;28;20049;-86
2021/01/08 11:36:38;;;;;;;39.72;24.63;;;4.30;99.90;;;;;;5034126;28;20102;-86
2021/01/08 11:39:08;;;;;;;39.33;25.38;;;4.30;99.90;;;;;;5034478;28;20052;-87
2021/01/08 11:41:35;;;;;;;42.70;27.33;;;4.30;99.90;;;;;;5024010;28;20058;-86
2021/01/08 11:44:01;;;;;;;36.05;23.77;;;4.30;99.90;;;;;;5021303;28;20053;-86
2021/01/08 11:46:28;;;;;;;39.78;24.55;;;4.30;99.90;;;;;;5021841;28;20056;-86
2021/01/08 11:48:58;;;;;;;38.20;24.20;;;4.30;99.90;;;;;;5020085;28;20063;-86
2021/01/08 11:51:24;;;;;;;38.10;24.20;;;4.30;99.90;;;;;;5019657;28;20128;-85
2021/01/08 11:53:54;;;;;;;41.78;25.15;;;4.30;99.90;;;;;;5055162;28;20057;-86
2021/01/08 11:56:27;;;;;;;;;;;4.40;99.90;;;;;;5042853;28;20050;-86
2021/01/08 11:58:54;;;;;;;42.33;25.65;;;4.40;99.90;;;;;;5020852;28;19927;-86
2021/01/08 12:01:28;;;;;;;44.53;27.17;;;4.40;99.90;;;;;;5026583;28;20056;-86
2021/01/08 12:03:55;;;;;;;42.58;27.88;;;4.40;99.90;;;;;;5034601;28;24376;-86
2021/01/08 12:06:30;;;;;;;46.95;30.05;;;4.40;99.90;;;;;;5035681;28;20129;-86
2021/01/08 12:09:01;;;;;;;43.72;26.90;;;4.50;99.90;;;;;;5019895;28;20057;-86
2021/01/08 12:11:28;;;;;;;59.50;39.42;;;4.50;99.90;;;;;;5028673;28;20064;-86
2021/01/08 12:13:56;;;;;;;47.08;31.38;;;4.60;99.90;;;;;;5029547;28;20044;-86
2021/01/08 12:16:24;;;;;;;48.88;28.48;;;4.60;99.90;;;;;;5060605;28;20141;-86
2021/01/08 12:18:51;;;;;;;41.60;24.53;;;4.60;99.90;;;;;;5035356;28;20059;-85
2021/01/08 12:21:18;;;;;;;46.53;31.80;;;4.70;99.90;;;;;;5044529;28;20505;-85
2021/01/08 12:23:44;;;;;;;40.70;24.95;;;4.70;99.90;;;;;;5027380;28;20489;-86
2021/01/08 12:26:15;;;;;;;39.13;24.08;;;4.80;99.90;;;;;;5028695;28;20171;-85
2021/01/08 12:28:42;;;;;;;35.42;24.83;;;4.80;99.90;;;;;;5031666;28;20083;-85
2021/01/08 12:31:09;;;;;;;41.85;27.23;;;4.90;99.90;;;;;;5033362;28;20446;-86
2021/01/08 12:33:36;;;;;;;49.10;36.03;;;4.90;99.90;;;;;;5036525;28;20072;-86
2021/01/08 12:36:04;;;;;;;54.35;36.67;;;5.00;99.90;;;;;;5037615;28;20081;-86
2021/01/08 12:38:32;;;;;;;33.83;23.38;;;5.00;99.90;;;;;;5036568;28;20061;-87
2021/01/08 12:40:59;;;;;;;51.47;33.70;;;5.10;99.90;;;;;;5032491;28;20045;-86
2021/01/08 12:43:26;;;;;;;37.25;23.77;;;5.10;99.90;;;;;;5026230;28;20045;-88
2021/01/08 12:45:53;;;;;;;35.05;22.30;;;5.10;99.90;;;;;;5036479;28;20056;-86
2021/01/08 12:48:20;;;;;;;36.53;25.45;;;5.10;99.90;;;;;;5071102;28;20172;-87
2021/01/08 12:50:46;;;;;;;35.17;23.17;;;5.10;99.90;;;;;;5036351;28;20053;-87